Augusta, Illinois
Current Conditions -  °F | °C
As of 12:54 AM on Saturday 29 Nov 2014 (Local Time) from KUIN Reporting Station
Clear Clear  
Wind Chill: 38°   Ceiling: Unl
Heat Index: 44°   Visibility: 10mi
Dew Point: 34°   Wind: 12mph
Humidity: 68%   Direction: 180°S
Pressure: 29.75"   Gusts: NA
Location:  40.23°N, 90.95°W
Report Text: KUIN 290654Z AUTO 18010KT 10SM CLR 07/01 A2975 RMK AO2 SLP077 T00670011
Loading
Personal Weather Stations






























Interactive Weather Map New forecast layout! Learn more

10-Day Weather Forecast

Advertisements
Track Severe Weather on mobile